Time;durP1;ratioP1;P1;durP2;ratioP2;P2;SDS_P1;SDS_P2;PMS_P1;PMS_P2;Temp;Humidity;BMP_temperature;BMP_pressure;BME280_temperature;BME280_humidity;BME280_pressure;Samples;Min_cycle;Max_cycle;Signal;HPM_P1;HPM_P2
2023/12/27 00:00:03;;;;;;;;;;;;;;;24.96;26.10;98059.78;5099578;28;20290;-92
2023/12/27 00:02:30;;;;;;;;;;;;;;;24.84;26.11;98062.50;5100316;28;19938;-91
2023/12/27 00:04:56;;;;;;;;;;;;;;;24.36;26.30;98064.03;5101758;28;20006;-90
2023/12/27 00:07:22;;;;;;;;;;;;;;;23.91;26.96;98069.44;5102023;28;20019;-90
2023/12/27 00:09:48;;;;;;;;;;;;;;;23.79;27.12;98069.28;5101797;28;19923;-92
2023/12/27 00:12:14;;;;;;;;;;;;;;;23.97;26.93;98080.91;5097764;28;19946;-91
2023/12/27 00:14:40;;;;;;;;;;;;;;;24.31;26.22;98080.59;5100076;28;19919;-91
2023/12/27 00:17:06;;;;;;;;;;;;;;;24.19;26.61;98092.50;5101943;28;19924;-91
2023/12/27 00:19:32;;;;;;;;;;;;;;;24.66;25.78;98094.59;5100789;28;19928;-91
2023/12/27 00:21:58;;;;;;;;;;;;;;;24.77;25.91;98087.94;5100653;28;19928;-91
2023/12/27 00:24:24;;;;;;;;;;;;;;;24.57;25.92;98094.41;5102274;27;19981;-90
2023/12/27 00:26:50;;;;;;;;;;;;;;;23.95;26.55;98100.19;5103299;28;19927;-91
2023/12/27 00:29:16;;;;;;;;;;;;;;;23.93;26.57;98102.63;5099348;28;19920;-91
2023/12/27 00:31:42;;;;;;;;;;;;;;;23.99;26.43;98112.91;5104525;28;19926;-91
2023/12/27 00:34:08;;;;;;;;;;;;;;;22.86;29.15;98125.44;5100888;28;19928;-90
2023/12/27 00:36:35;;;;;;;;;;;;;;;21.25;31.07;98135.47;5102217;28;20346;-91
2023/12/27 00:39:03;;;;;;;;;;;;;;;22.79;28.36;98135.94;5098624;28;19920;-91
2023/12/27 00:41:29;;;;;;;;;;;;;;;22.72;28.67;98142.44;5095845;28;19932;-91
2023/12/27 00:43:55;;;;;;;;;;;;;;;23.45;27.30;98144.44;5101277;27;19950;-91
2023/12/27 00:46:21;;;;;;;;;;;;;;;23.06;27.95;98154.28;5102892;27;20003;-91
2023/12/27 00:48:47;;;;;;;;;;;;;;;23.04;27.99;98150.31;5078454;28;20015;-90
2023/12/27 00:51:17;;;;;;;;;;;;;;;23.44;27.42;98154.84;5100985;28;20391;-90
2023/12/27 00:53:43;;;;;;;;;;;;;;;24.27;26.31;98150.03;5099624;28;19931;-90
2023/12/27 00:56:09;;;;;;;;;;;;;;;23.16;28.81;98152.53;5097234;28;20330;-90
2023/12/27 00:58:35;;;;;;;;;;;;;;;23.86;26.93;98164.47;5104311;27;19924;-92
2023/12/27 01:01:01;;;;;;;;;;;;;;;24.13;26.53;98167.19;5101182;27;19924;-90
2023/12/27 01:03:27;;;;;;;;;;;;;;;24.19;26.63;98171.03;5102259;28;19955;-91
2023/12/27 01:05:53;;;;;;;;;;;;;;;24.01;26.81;98174.97;5103481;27;20030;-91
2023/12/27 01:08:19;;;;;;;;;;;;;;;23.52;27.18;98177.94;5103920;28;20365;-90
2023/12/27 01:10:45;;;;;;;;;;;;;;;24.06;26.66;98173.72;5102433;28;20003;-91
2023/12/27 01:13:11;;;;;;;;;;;;;;;24.33;26.41;98173.56;5103479;27;20329;-91
2023/12/27 01:15:37;;;;;;;;;;;;;;;24.53;26.19;98186.31;5099020;28;20011;-91
2023/12/27 01:18:03;;;;;;;;;;;;;;;24.18;26.64;98192.69;5099979;28;19931;-91
2023/12/27 01:20:29;;;;;;;;;;;;;;;24.57;26.05;98192.69;5104546;28;20375;-91
2023/12/27 01:22:55;;;;;;;;;;;;;;;24.41;25.97;98186.22;5091464;28;20342;-92
2023/12/27 01:25:21;;;;;;;;;;;;;;;22.55;28.54;98210.63;5100904;28;19928;-91
2023/12/27 01:27:47;;;;;;;;;;;;;;;22.13;29.04;98208.38;5098780;28;19920;-91
2023/12/27 01:30:13;;;;;;;;;;;;;;;21.88;29.84;98211.47;5099892;28;19965;-91
2023/12/27 01:32:39;;;;;;;;;;;;;;;23.49;27.04;98207.63;5082161;28;19966;-91
2023/12/27 01:35:05;;;;;;;;;;;;;;;22.91;27.96;98203.34;5101628;28;20276;-91
2023/12/27 01:37:32;;;;;;;;;;;;;;;23.74;26.42;98204.34;5099029;28;19981;-91
2023/12/27 01:39:58;;;;;;;;;;;;;;;23.09;29.38;98220.66;5084035;27;19927;-90
2023/12/27 01:42:24;;;;;;;;;;;;;;;23.45;26.68;98217.31;5101582;27;19924;-91
2023/12/27 01:44:50;;;;;;;;;;;;;;;24.09;25.60;98214.94;5103179;28;19928;-91
2023/12/27 01:47:16;;;;;;;;;;;;;;;23.38;27.28;98212.63;5100604;28;19928;-91
2023/12/27 01:49:42;;;;;;;;;;;;;;;22.57;27.41;98224.97;5100781;28;20372;-90
2023/12/27 01:52:10;;;;;;;;;;;;;;;23.03;26.96;98229.97;5105334;27;19923;-91
2023/12/27 01:54:36;;;;;;;;;;;;;;;23.68;26.21;98226.50;5099451;28;19973;-90
2023/12/27 01:57:02;;;;;;;;;;;;;;;23.36;26.45;98231.88;5099922;28;19938;-90
2023/12/27 01:59:28;;;;;;;;;;;;;;;24.38;25.27;98235.59;5085185;28;19973;-91
2023/12/27 02:01:55;;;;;;;;;;;;;;;24.81;24.53;98227.03;5102055;28;19928;-91
2023/12/27 02:04:21;;;;;;;;;;;;;;;24.53;25.13;98233.25;5105088;28;20359;-91
2023/12/27 02:06:47;;;;;;;;;;;;;;;24.02;25.37;98243.88;5103825;28;19943;-91
2023/12/27 02:09:13;;;;;;;;;;;;;;;24.88;24.51;98228.94;5103204;28;19955;-91
2023/12/27 02:11:39;;;;;;;;;;;;;;;25.40;24.04;98236.06;5099966;28;19920;-91
2023/12/27 02:14:05;;;;;;;;;;;;;;;25.61;24.00;98237.59;5100816;28;19993;-91
2023/12/27 02:16:32;;;;;;;;;;;;;;;25.93;23.48;98243.16;5102491;28;20259;-92
2023/12/27 02:19:00;;;;;;;;;;;;;;;25.84;23.63;98245.81;5102332;27;19959;-91
2023/12/27 02:21:27;;;;;;;;;;;;;;;25.92;23.81;98243.63;5102423;28;20005;-91
2023/12/27 02:23:55;;;;;;;;;;;;;;;25.63;24.01;98245.56;5102550;28;19995;-91
2023/12/27 02:26:21;;;;;;;;;;;;;;;25.87;23.54;98252.59;5098696;28;20014;-91
2023/12/27 02:28:47;;;;;;;;;;;;;;;26.16;23.61;98244.22;5098682;28;20299;-91
2023/12/27 02:31:13;;;;;;;;;;;;;;;25.70;23.81;98242.59;5081189;28;19930;-92
2023/12/27 02:33:44;;;;;;;;;;;;;;;25.55;24.03;98239.38;5100555;27;19924;-91
2023/12/27 02:36:10;;;;;;;;;;;;;;;24.93;24.58;98248.84;5098107;28;20464;-91
2023/12/27 02:38:36;;;;;;;;;;;;;;;25.75;23.95;98253.31;5098419;28;19927;-91
2023/12/27 02:41:02;;;;;;;;;;;;;;;25.97;23.71;98245.91;5100467;28;20464;-91
2023/12/27 02:43:28;;;;;;;;;;;;;;;25.33;24.07;98255.94;5099087;28;20432;-91
2023/12/27 02:45:54;;;;;;;;;;;;;;;25.23;24.26;98256.16;5101042;28;19931;-91
2023/12/27 02:48:20;;;;;;;;;;;;;;;24.86;24.83;98251.00;5100949;28;20394;-91
2023/12/27 02:50:46;;;;;;;;;;;;;;;24.98;24.60;98255.97;5101600;28;19945;-91
2023/12/27 02:53:12;;;;;;;;;;;;;;;24.98;24.51;98259.56;5102642;28;19920;-92
2023/12/27 02:55:38;;;;;;;;;;;;;;;25.49;23.88;98260.78;5105300;28;19916;-91
2023/12/27 02:58:04;;;;;;;;;;;;;;;24.88;24.47;98259.81;5101857;28;19927;-92
2023/12/27 03:00:34;;;;;;;;;;;;;;;25.23;23.88;98258.97;5103106;28;20027;-92
2023/12/27 03:03:01;;;;;;;;;;;;;;;25.90;22.98;98266.56;5103476;28;19959;-92
2023/12/27 03:05:27;;;;;;;;;;;;;;;25.53;23.26;98272.75;5105996;28;20523;-92
2023/12/27 03:07:53;;;;;;;;;;;;;;;25.95;23.05;98274.44;5101453;28;19966;-91
2023/12/27 03:10:19;;;;;;;;;;;;;;;24.29;24.77;98273.88;5100306;28;20334;-93
2023/12/27 03:12:45;;;;;;;;;;;;;;;25.01;23.92;98274.75;5103530;28;20014;-92
2023/12/27 03:15:11;;;;;;;;;;;;;;;24.05;24.88;98281.50;5106520;28;19920;-91
2023/12/27 03:17:37;;;;;;;;;;;;;;;23.36;25.66;98274.66;5103628;28;19946;-92
2023/12/27 03:20:03;;;;;;;;;;;;;;;23.63;24.65;98280.25;5098677;28;19919;-90
2023/12/27 03:22:29;;;;;;;;;;;;;;;23.52;25.58;98279.63;5098095;28;20019;-91
2023/12/27 03:24:55;;;;;;;;;;;;;;;21.59;27.35;98283.56;5100072;28;20027;-91
2023/12/27 03:27:21;;;;;;;;;;;;;;;21.35;27.22;98290.16;5103074;28;19923;-91
2023/12/27 03:29:47;;;;;;;;;;;;;;;21.13;27.39;98278.34;5105707;28;19989;-90
2023/12/27 03:32:13;;;;;;;;;;;;;;;22.95;25.22;98290.06;5103185;28;19939;-91
2023/12/27 03:34:39;;;;;;;;;;;;;;;22.16;26.96;98292.25;5103840;28;20418;-91
2023/12/27 03:37:05;;;;;;;;;;;;;;;21.68;28.23;98302.69;5101780;28;19920;-90
2023/12/27 03:39:31;;;;;;;;;;;;;;;21.60;26.21;98307.53;5099501;28;19920;-92
2023/12/27 03:41:57;;;;;;;;;;;;;;;20.75;27.74;98309.25;5103604;28;20015;-91
2023/12/27 03:44:23;;;;;;;;;;;;;;;20.86;28.27;98316.38;5101362;28;19967;-91
2023/12/27 03:46:49;;;;;;;;;;;;;;;20.10;28.85;98326.56;5101489;28;19924;-91
2023/12/27 03:49:15;;;;;;;;;;;;;;;18.89;30.51;98341.59;5103431;28;19920;-90
2023/12/27 03:51:41;;;;;;;;;;;;;;;17.88;34.52;98371.19;5101545;28;19923;-93
2023/12/27 03:54:07;;;;;;;;;;;;;;;17.85;33.77;98378.31;5086669;28;19939;-92
2023/12/27 03:56:33;;;;;;;;;;;;;;;17.65;34.25;98398.38;5103428;28;20422;-92
2023/12/27 03:59:03;;;;;;;;;;;;;;;18.42;32.87;98385.06;5107506;28;19920;-91
2023/12/27 04:01:29;;;;;;;;;;;;;;;18.94;31.35;98374.59;5111852;27;20000;-90
2023/12/27 04:03:55;;;;;;;;;;;;;;;18.42;33.69;98389.81;5108688;28;19919;-92
2023/12/27 04:06:21;;;;;;;;;;;;;;;19.12;31.63;98389.34;5103776;28;20049;-90
2023/12/27 04:08:47;;;;;;;;;;;;;;;18.87;35.91;98396.84;5105287;27;19920;-93
2023/12/27 04:11:13;;;;;;;;;;;;;;;18.92;33.08;98400.03;5110871;28;19919;-92
2023/12/27 04:13:40;;;;;;;;;;;;;;;17.48;38.22;98387.91;5108156;28;19923;-92
2023/12/27 04:16:06;;;;;;;;;;;;;;;17.96;33.46;98400.63;5101889;28;19932;-91
2023/12/27 04:18:32;;;;;;;;;;;;;;;18.08;34.67;98408.66;5107949;28;20065;-92
2023/12/27 04:20:58;;;;;;;;;;;;;;;18.62;33.01;98403.06;5101031;28;19920;-91
2023/12/27 04:23:24;;;;;;;;;;;;;;;17.67;36.16;98412.66;5101908;27;19924;-92
2023/12/27 04:25:50;;;;;;;;;;;;;;;19.51;33.48;98398.63;5111321;27;19926;-94
2023/12/27 04:28:16;;;;;;;;;;;;;;;20.25;30.60;98400.66;5092368;28;20347;-91
2023/12/27 04:30:42;;;;;;;;;;;;;;;20.36;30.62;98409.78;5105343;28;19955;-91
2023/12/27 04:33:08;;;;;;;;;;;;;;;21.01;29.02;98412.78;5109384;28;19927;-90
2023/12/27 04:35:34;;;;;;;;;;;;;;;21.51;28.38;98409.78;5113078;28;19924;-91
2023/12/27 04:38:00;;;;;;;;;;;;;;;21.09;30.19;98422.78;5111529;27;19960;-92
2023/12/27 04:40:26;;;;;;;;;;;;;;;21.28;29.35;98422.25;5113023;28;20010;-91
2023/12/27 04:42:53;;;;;;;;;;;;;;;19.90;30.53;98434.88;5104949;27;19928;-93
2023/12/27 04:45:19;;;;;;;;;;;;;;;19.92;30.22;98436.09;5102044;28;19966;-91
2023/12/27 04:47:45;;;;;;;;;;;;;;;20.15;29.48;98434.88;5106587;28;19928;-91
2023/12/27 04:50:11;;;;;;;;;;;;;;;18.62;31.93;98438.44;5104666;28;19927;-91
2023/12/27 04:52:37;;;;;;;;;;;;;;;18.72;31.18;98437.69;5104307;28;19920;-90
2023/12/27 04:55:03;;;;;;;;;;;;;;;18.19;31.46;98422.63;5103657;27;20419;-92
2023/12/27 04:57:29;;;;;;;;;;;;;;;18.31;31.41;98441.78;5101270;28;20275;-91
2023/12/27 04:59:55;;;;;;;;;;;;;;;17.80;34.96;98431.47;5104437;28;20495;-91
2023/12/27 05:02:21;;;;;;;;;;;;;;;18.94;30.41;98449.72;5102483;28;19924;-91
2023/12/27 05:04:47;;;;;;;;;;;;;;;18.77;31.51;98455.97;5109170;27;19916;-93
2023/12/27 05:07:13;;;;;;;;;;;;;;;18.05;33.84;98451.09;5094648;28;19998;-91
2023/12/27 05:09:39;;;;;;;;;;;;;;;18.02;32.73;98448.31;5101556;27;19935;-90
2023/12/27 05:12:05;;;;;;;;;;;;;;;17.35;36.16;98453.16;5106707;28;19916;-93
2023/12/27 05:14:31;;;;;;;;;;;;;;;18.21;30.51;98457.19;5109971;27;19939;-90
2023/12/27 05:16:57;;;;;;;;;;;;;;;16.75;35.12;98463.53;5106589;27;19931;-91
2023/12/27 05:19:23;;;;;;;;;;;;;;;16.50;33.29;98465.91;5103400;28;19963;-89
2023/12/27 05:21:49;;;;;;;;;;;;;;;17.10;32.29;98456.47;5109687;28;19931;-90
2023/12/27 05:24:15;;;;;;;;;;;;;;;17.90;30.90;98463.25;5112054;28;19923;-89
2023/12/27 05:26:41;;;;;;;;;;;;;;;17.11;31.34;98466.38;5111837;27;20375;-92
2023/12/27 05:29:08;;;;;;;;;;;;;;;18.30;31.02;98484.63;5105537;28;19991;-90
2023/12/27 05:31:34;;;;;;;;;;;;;;;18.54;29.22;98493.22;5102874;28;19931;-90
2023/12/27 05:34:00;;;;;;;;;;;;;;;19.02;29.14;98488.31;5105019;28;19920;-89
2023/12/27 05:36:26;;;;;;;;;;;;;;;19.71;27.92;98483.44;5103723;27;20485;-91
2023/12/27 05:38:52;;;;;;;;;;;;;;;20.74;26.47;98486.25;5104804;28;20019;-89
2023/12/27 05:41:21;;;;;;;;;;;;;;;20.96;25.94;98499.75;5103837;27;20367;-90
2023/12/27 05:43:47;;;;;;;;;;;;;;;21.68;25.23;98499.06;5108258;28;19920;-90
2023/12/27 05:46:13;;;;;;;;;;;;;;;23.36;23.07;98498.84;5105752;28;19924;-90
2023/12/27 05:48:39;;;;;;;;;;;;;;;22.92;23.77;98521.31;5103863;27;19959;-91
2023/12/27 05:51:05;;;;;;;;;;;;;;;23.38;23.31;98511.66;5105256;28;20364;-89
2023/12/27 05:53:31;;;;;;;;;;;;;;;22.69;25.09;98519.16;5097735;28;20367;-90
2023/12/27 05:55:57;;;;;;;;;;;;;;;22.05;26.62;98529.25;5095519;27;19965;-89
2023/12/27 05:58:23;;;;;;;;;;;;;;;22.45;24.59;98531.31;5102179;28;19934;-89
2023/12/27 06:00:49;;;;;;;;;;;;;;;21.35;25.93;98536.72;5105867;27;19920;-90
2023/12/27 06:03:15;;;;;;;;;;;;;;;20.94;27.44;98532.84;5116897;27;19955;-91
2023/12/27 06:05:41;;;;;;;;;;;;;;;20.97;26.85;98548.00;5124436;28;19915;-90
2023/12/27 06:08:07;;;;;;;;;;;;;;;21.02;26.60;98545.59;5111128;27;19923;-90
2023/12/27 06:10:33;;;;;;;;;;;;;;;21.63;25.33;98549.81;5101752;28;20294;-89
2023/12/27 06:12:59;;;;;;;;;;;;;;;21.65;26.21;98547.41;5100149;27;19928;-90
2023/12/27 06:15:25;;;;;;;;;;;;;;;22.04;24.84;98550.00;5097964;28;20446;-88
2023/12/27 06:17:51;;;;;;;;;;;;;;;21.41;24.98;98555.88;5108453;27;19938;-89
2023/12/27 06:20:17;;;;;;;;;;;;;;;21.38;24.59;98565.84;5104751;28;19934;-89
2023/12/27 06:22:43;;;;;;;;;;;;;;;20.71;26.35;98568.75;5098287;27;19931;-88
2023/12/27 06:25:09;;;;;;;;;;;;;;;20.72;26.42;98573.16;5099003;28;19924;-89
2023/12/27 06:27:35;;;;;;;;;;;;;;;18.52;31.46;98581.78;5085846;28;19920;-89
2023/12/27 06:30:02;;;;;;;;;;;;;;;19.14;27.21;98582.59;5097306;28;19920;-92
2023/12/27 06:32:28;;;;;;;;;;;;;;;19.43;27.54;98586.38;5095397;28;19924;-90
2023/12/27 06:34:54;;;;;;;;;;;;;;;19.46;26.77;98590.38;5098182;28;19924;-88
2023/12/27 06:37:20;;;;;;;;;;;;;;;17.78;31.41;98610.75;5098710;28;20477;-90
2023/12/27 06:39:46;;;;;;;;;;;;;;;18.94;27.32;98602.75;5096376;28;19982;-89
2023/12/27 06:42:12;;;;;;;;;;;;;;;19.00;27.54;98603.97;5100745;28;19967;-89
2023/12/27 06:44:38;;;;;;;;;;;;;;;18.45;27.67;98605.91;5101112;27;19916;-88
2023/12/27 06:47:04;;;;;;;;;;;;;;;17.53;34.56;98620.75;5098934;28;20061;-90
2023/12/27 06:49:30;;;;;;;;;;;;;;;17.34;33.13;98629.97;5100690;28;19916;-89
2023/12/27 06:51:56;;;;;;;;;;;;;;;17.13;29.29;98607.47;5082514;28;19958;-90
2023/12/27 06:54:22;;;;;;;;;;;;;;;18.71;27.45;98638.34;5101078;28;20318;-88
2023/12/27 06:56:48;;;;;;;;;;;;;;;16.91;32.41;98641.63;5099042;28;19922;-91
2023/12/27 06:59:14;;;;;;;;;;;;;;;18.03;29.31;98647.97;5081518;28;20002;-90
2023/12/27 07:01:42;;;;;;;;;;;;;;;18.68;27.53;98650.22;5098945;28;20012;-90
2023/12/27 07:04:08;;;;;;;;;;;;;;;19.37;27.50;98653.97;5095858;28;19966;-88
2023/12/27 07:06:34;;;;;;;;;;;;;;;19.74;26.07;98651.78;5103737;28;20433;-88
2023/12/27 07:09:00;;;;;;;;;;;;;;;19.55;26.48;98654.88;5100036;28;19927;-90
2023/12/27 07:11:26;;;;;;;;;;;;;;;18.08;28.73;98664.28;5098483;28;19985;-89
2023/12/27 07:13:52;;;;;;;;;;;;;;;19.86;26.34;98663.38;5100773;28;20020;-88
2023/12/27 07:16:18;;;;;;;;;;;;;;;20.69;25.62;98654.84;5105194;28;20307;-89
2023/12/27 07:18:44;;;;;;;;;;;;;;;20.36;26.04;98671.94;5100927;28;19928;-88
2023/12/27 07:21:11;;;;;;;;;;;;;;;21.29;24.24;98680.81;5098110;28;20302;-89
2023/12/27 07:23:37;;;;;;;;;;;;;;;20.75;25.14;98678.38;5100624;28;20299;-89
2023/12/27 07:26:04;;;;;;;;;;;;;;;22.12;23.37;98688.59;5098382;28;19920;-89
2023/12/27 07:28:30;;;;;;;;;;;;;;;22.89;22.47;98681.78;5095008;28;19921;-89
2023/12/27 07:30:57;;;;;;;;;;;;;;;22.08;23.38;98689.81;5098536;28;20014;-89
2023/12/27 07:33:23;;;;;;;;;;;;;;;23.08;21.93;98691.63;5099206;28;20347;-89
2023/12/27 07:35:49;;;;;;;;;;;;;;;22.68;22.75;98698.72;5102097;28;19919;-89
2023/12/27 07:38:15;;;;;;;;;;;;;;;21.47;23.82;98705.91;5100969;28;19928;-90
2023/12/27 07:40:43;;;;;;;;;;;;;;;21.82;23.52;98710.66;5104250;28;19928;-90
2023/12/27 07:43:09;;;;;;;;;;;;;;;22.23;23.27;98720.13;5100965;28;19943;-89
2023/12/27 07:45:36;;;;;;;;;;;;;;;22.25;23.97;98714.09;5101452;27;19959;-89
2023/12/27 07:48:02;;;;;;;;;;;;;;;22.51;22.90;98719.97;5104149;28;19931;-90
2023/12/27 07:50:28;;;;;;;;;;;;;;;21.99;24.63;98727.38;5102000;27;20287;-89
2023/12/27 07:52:54;;;;;;;;;;;;;;;20.61;26.34;98737.75;5107932;28;19924;-89
2023/12/27 07:55:20;;;;;;;;;;;;;;;20.80;24.62;98717.06;5105187;27;19994;-89
2023/12/27 07:57:47;;;;;;;;;;;;;;;20.02;25.73;98729.94;5106342;28;19926;-90
2023/12/27 08:00:16;;;;;;;;;;;;;;;19.32;26.57;98739.41;5108247;27;19924;-87
2023/12/27 08:02:42;;;;;;;;;;;;;;;19.91;25.88;98732.66;5106766;27;19966;-88
2023/12/27 08:05:08;;;;;;;;;;;;;;;20.18;25.92;98744.34;5107621;27;19965;-88
2023/12/27 08:07:34;;;;;;;;;;;;;;;19.60;26.36;98743.63;5107827;28;19926;-88
2023/12/27 08:10:00;;;;;;;;;;;;;;;21.17;24.32;98751.03;5108537;27;19926;-88
2023/12/27 08:12:26;;;;;;;;;;;;;;;21.35;24.24;98749.03;5105312;28;20371;-89
2023/12/27 08:14:52;;;;;;;;;;;;;;;20.73;25.03;98760.88;5104322;28;19932;-89
2023/12/27 08:17:18;;;;;;;;;;;;;;;21.19;24.45;98772.97;5102381;27;19975;-90
2023/12/27 08:19:44;;;;;;;;;;;;;;;20.71;27.66;98772.44;5104891;28;20014;-89
2023/12/27 08:22:10;;;;;;;;;;;;;;;20.75;25.94;98778.84;5105229;27;20117;-89
2023/12/27 08:24:36;;;;;;;;;;;;;;;19.22;29.21;98786.66;5105754;28;19920;-90
2023/12/27 08:27:02;;;;;;;;;;;;;;;20.75;25.57;98790.00;5107072;27;19919;-89
2023/12/27 08:29:28;;;;;;;;;;;;;;;21.76;25.74;98773.75;5107136;28;19920;-89
2023/12/27 08:31:54;;;;;;;;;;;;;;;21.59;24.41;98791.31;5112231;28;19947;-90
2023/12/27 08:34:20;;;;;;;;;;;;;;;21.11;24.66;98802.88;5106479;27;19934;-89
2023/12/27 08:36:48;;;;;;;;;;;;;;;20.43;25.44;98814.19;5101821;27;19989;-89
2023/12/27 08:39:15;;;;;;;;;;;;;;;20.83;25.39;98802.78;5101980;28;20307;-90
2023/12/27 08:41:41;;;;;;;;;;;;;;;21.83;23.75;98793.28;5104459;27;19928;-89
2023/12/27 08:44:07;;;;;;;;;;;;;;;20.67;24.78;98813.50;5102619;28;19927;-89
2023/12/27 08:46:33;;;;;;;;;;;;;;;19.61;26.48;98796.16;5108545;28;20010;-90
2023/12/27 08:48:59;;;;;;;;;;;;;;;19.91;25.71;98799.56;5106045;28;19919;-90
2023/12/27 08:51:25;;;;;;;;;;;;;;;19.43;26.54;98816.69;5103960;28;19924;-90
2023/12/27 08:53:51;;;;;;;;;;;;;;;18.33;28.14;98807.13;5105347;28;19943;-89
2023/12/27 08:56:17;;;;;;;;;;;;;;;18.95;26.42;98818.63;5105125;28;20291;-89
2023/12/27 08:58:43;;;;;;;;;;;;;;;18.63;27.80;98819.06;5107543;27;20013;-90
2023/12/27 09:01:09;;;;;;;;;;;;;;;17.93;28.85;98818.09;5106878;27;19919;-90
2023/12/27 09:03:35;;;;;;;;;;;;;;;18.90;27.17;98816.97;5101096;27;19927;-89
2023/12/27 09:06:01;;;;;;;;;;;;;;;20.56;25.10;98821.06;5098986;28;19916;-89
2023/12/27 09:08:27;;;;;;;;;;;;;;;18.76;26.90;98811.25;5103651;28;20356;-91
2023/12/27 09:10:53;;;;;;;;;;;;;;;19.34;27.77;98833.72;5101212;28;19916;-90
2023/12/27 09:13:19;;;;;;;;;;;;;;;19.44;25.86;98829.47;5084198;28;20128;-90
2023/12/27 09:15:45;;;;;;;;;;;;;;;19.46;26.17;98835.44;5102124;28;20359;-87
2023/12/27 09:18:11;;;;;;;;;;;;;;;18.33;29.85;98831.34;5101334;27;19952;-89
2023/12/27 09:20:37;;;;;;;;;;;;;;;19.26;26.35;98818.91;5083857;28;19923;-90
2023/12/27 09:23:03;;;;;;;;;;;;;;;19.16;26.49;98819.59;5100834;27;19980;-89
2023/12/27 09:25:29;;;;;;;;;;;;;;;19.66;27.43;98817.28;5101174;28;20007;-89
2023/12/27 09:27:55;;;;;;;;;;;;;;;19.92;26.83;98820.66;5101628;28;19973;-89
2023/12/27 09:30:22;;;;;;;;;;;;;;;19.18;26.03;98825.59;5104711;28;19973;-89
2023/12/27 09:32:48;;;;;;;;;;;;;;;18.62;27.20;98823.00;5099013;28;19927;-89
2023/12/27 09:35:14;;;;;;;;;;;;;;;20.82;24.17;98811.56;5100263;28;24491;-89
2023/12/27 09:37:40;;;;;;;;;;;;;;;18.97;26.36;98817.06;5083115;28;19920;-89
2023/12/27 09:40:06;;;;;;;;;;;;;;;18.77;26.32;98812.84;5103251;28;19920;-89
2023/12/27 09:42:32;;;;;;;;;;;;;;;20.08;25.00;98820.38;5101594;28;19931;-89
2023/12/27 09:45:00;;;;;;;;;;;;;;;20.82;24.54;98814.38;5103664;27;19955;-89
2023/12/27 09:47:28;;;;;;;;;;;;;;;21.14;23.95;98816.03;5100796;28;19954;-90
2023/12/27 09:49:55;;;;;;;;;;;;;;;21.38;23.41;98822.06;5097222;28;19950;-89
2023/12/27 09:52:22;;;;;;;;;;;;;;;21.53;23.52;98826.44;5100470;27;19942;-90
2023/12/27 09:54:49;;;;;;;;;;;;;;;20.65;24.46;98819.47;5096158;28;19949;-88
2023/12/27 09:57:15;;;;;;;;;;;;;;;21.76;23.52;98810.06;5099175;28;19962;-89
2023/12/27 09:59:45;;;;;;;;;;;;;;;21.20;25.12;98825.63;5097452;28;19927;-91
2023/12/27 10:02:13;;;;;;;;;;;;;;;21.06;24.25;98817.22;5105286;27;20051;-89
2023/12/27 10:04:51;;;;;;;;;;;;;;;21.41;22.86;98818.47;5101605;27;19916;-90
2023/12/27 10:07:18;;;;;;;;;;;;;;;20.93;24.44;98810.41;5106471;28;19919;-90
2023/12/27 10:09:46;;;;;;;;;;;;;;;20.78;24.23;98808.75;5102799;27;20045;-90
2023/12/27 10:12:13;;;;;;;;;;;;;;;20.82;29.71;98815.13;5103892;28;19928;-92
2023/12/27 10:14:39;;;;;;;;;;;;;;;20.69;24.05;98805.53;5106237;28;19920;-90
2023/12/27 10:17:05;;;;;;;;;;;;;;;20.29;27.19;98811.34;5100609;27;19992;-90
2023/12/27 10:19:41;;;;;;;;;;;;;;;20.54;23.76;98801.91;5102604;27;20022;-90
2023/12/27 10:22:08;;;;;;;;;;;;;;;20.10;24.89;98797.66;5103841;28;19928;-88
2023/12/27 10:24:34;;;;;;;;;;;;;;;20.26;24.05;98798.16;5099073;27;20514;-90
2023/12/27 10:27:03;;;;;;;;;;;;;;;20.74;24.18;98809.94;5102081;28;19942;-91
2023/12/27 10:29:31;;;;;;;;;;;;;;;20.92;23.22;98817.16;5106819;28;19920;-90
2023/12/27 10:31:58;;;;;;;;;;;;;;;19.93;29.70;98822.25;5100465;28;20333;-90
2023/12/27 10:34:24;;;;;;;;;;;;;;;21.48;22.51;98807.28;5105194;28;19989;-90
2023/12/27 10:36:50;;;;;;;;;;;;;;;19.84;26.58;98805.06;5103043;28;20004;-88
2023/12/27 10:39:17;;;;;;;;;;;;;;;20.05;24.42;98812.78;5081095;28;20003;-89
2023/12/27 10:41:43;;;;;;;;;;;;;;;20.10;25.87;98814.38;5095899;27;20018;-88
2023/12/27 10:44:11;;;;;;;;;;;;;;;20.17;30.34;98815.22;5094941;28;19921;-92
2023/12/27 10:46:39;;;;;;;;;;;;;;;20.26;26.03;98806.53;5096388;27;19931;-89
2023/12/27 10:49:05;;;;;;;;;;;;;;;18.42;27.97;98820.72;5102462;27;19928;-91
2023/12/27 10:51:38;;;;;;;;;;;;;;;19.58;24.79;98810.84;5101573;28;19924;-90
2023/12/27 10:54:05;;;;;;;;;;;;;;;20.14;25.18;98806.88;5097250;28;20394;-92
2023/12/27 10:56:34;;;;;;;;;;;;;;;19.06;32.67;98814.75;5097644;28;19920;-91
2023/12/27 10:59:00;;;;;;;;;;;;;;;19.86;24.83;98811.06;5098576;28;19928;-91
2023/12/27 11:01:27;;;;;;;;;;;;;;;20.78;23.87;98808.75;5099903;28;19920;-91
2023/12/27 11:03:53;;;;;;;;;;;;;;;21.61;23.14;98800.13;5108575;28;19947;-91
2023/12/27 11:06:21;;;;;;;;;;;;;;;20.23;25.30;98805.34;5097899;28;19923;-92
2023/12/27 11:08:48;;;;;;;;;;;;;;;20.49;24.60;98801.50;5099985;28;20010;-92
2023/12/27 11:11:15;;;;;;;;;;;;;;;20.22;24.52;98787.00;5102794;27;19923;-92
2023/12/27 11:13:42;;;;;;;;;;;;;;;20.93;22.96;98795.63;5110501;27;19974;-90
2023/12/27 11:16:09;;;;;;;;;;;;;;;21.91;23.09;98784.50;5108551;27;19931;-91
2023/12/27 11:18:38;;;;;;;;;;;;;;;20.78;23.56;98792.00;5104616;27;19927;-91
2023/12/27 11:21:04;;;;;;;;;;;;;;;21.19;23.08;98793.31;5107965;28;19935;-91
2023/12/27 11:23:30;;;;;;;;;;;;;;;22.63;22.33;98792.31;5110507;27;19941;-92
2023/12/27 11:25:59;;;;;;;;;;;;;;;22.35;21.36;98789.59;5105264;27;19920;-91
2023/12/27 11:28:26;;;;;;;;;;;;;;;21.08;22.64;98795.28;5111679;27;19944;-92
2023/12/27 11:30:53;;;;;;;;;;;;;;;21.38;25.02;98803.28;5108657;28;19985;-92
2023/12/27 11:33:22;;;;;;;;;;;;;;;22.46;21.48;98793.16;5107421;27;19920;-91
2023/12/27 11:35:50;;;;;;;;;;;;;;;22.54;23.07;98799.53;5106948;27;19928;-91
2023/12/27 11:38:20;;;;;;;;;;;;;;;22.99;20.91;98794.91;5106030;28;19920;-90
2023/12/27 11:40:48;;;;;;;;;;;;;;;20.41;30.29;98789.50;5103397;27;19928;-91
2023/12/27 11:43:21;;;;;;;;;;;;;;;19.53;29.20;98793.72;5105569;27;20433;-91
2023/12/27 11:46:09;;;;;;;;;;;;;;;19.50;25.84;98791.69;5105495;27;20406;-91
2023/12/27 11:48:38;;;;;;;;;;;;;;;21.30;22.83;98790.53;5107191;28;19947;-91
2023/12/27 11:51:22;;;;;;;;;;;;;;;22.33;21.28;98778.03;5108181;27;19928;-92
2023/12/27 11:53:48;;;;;;;;;;;;;;;22.16;21.15;98772.47;5106331;28;19920;-92
2023/12/27 11:56:15;;;;;;;;;;;;;;;21.68;23.68;98786.13;5105899;27;20341;-92
2023/12/27 11:58:42;;;;;;;;;;;;;;;21.80;21.64;98775.31;5109962;28;19981;-92
2023/12/27 12:01:28;;;;;;;;;;;;;;;21.14;23.77;98788.09;5104227;27;19920;-93
2023/12/27 12:04:06;;;;;;;;;;;;;;;21.32;21.53;98777.78;5110869;28;20352;-92
2023/12/27 12:06:42;;;;;;;;;;;;;;;22.73;20.80;98759.88;5107584;28;20003;-91
2023/12/27 12:09:09;;;;;;;;;;;;;;;20.66;23.47;98770.84;5105865;27;19923;-93
2023/12/27 12:11:35;;;;;;;;;;;;;;;20.64;31.75;98780.81;5115022;27;19924;-90
2023/12/27 12:14:02;;;;;;;;;;;;;;;21.05;22.84;98765.38;5111464;27;19919;-91
2023/12/27 12:16:31;;;;;;;;;;;;;;;21.37;22.41;98775.78;5102015;27;19951;-92
2023/12/27 12:19:04;;;;;;;;;;;;;;;22.34;21.12;98765.63;5096422;28;19931;-89
2023/12/27 12:21:31;;;;;;;;;;;;;;;22.82;20.45;98767.81;5103974;27;19921;-91
2023/12/27 12:23:57;;;;;;;;;;;;;;;22.47;22.63;98761.19;5111823;27;19930;-92
2023/12/27 12:26:23;;;;;;;;;;;;;;;22.93;20.79;98772.16;5119078;27;19938;-94
2023/12/27 12:28:53;;;;;;;;;;;;;;;21.95;21.42;98759.34;5108821;28;19926;-91
2023/12/27 12:31:19;;;;;;;;;;;;;;;22.01;22.46;98758.53;5100978;27;19920;-92
2023/12/27 12:33:45;;;;;;;;;;;;;;;22.41;23.05;98753.59;5101421;28;19935;-91
2023/12/27 12:36:11;;;;;;;;;;;;;;;22.57;21.40;98763.09;5105812;27;19916;-91
2023/12/27 12:38:37;;;;;;;;;;;;;;;23.55;19.90;98755.28;5104814;28;19927;-91
2023/12/27 12:41:03;;;;;;;;;;;;;;;22.51;21.92;98761.94;5101965;28;20379;-91
2023/12/27 12:43:30;;;;;;;;;;;;;;;22.21;21.89;98755.28;5099230;27;19916;-90